Blue Eastern — WDI6914 — position and weather

sailwx.info

Track history (hours):
 
Tides and Currents Weather Stations Pressure Air Temp Water Temp Dewpoint Dewpoint Depression Visibility Wind Speed Wind Dir Waves Ship Positions

Blue Eastern

Owner: BHF Blue Eastern LLC, Naples, FL. More information available from US FCC via Universal Licensing System and Coast Guard Vessel Documentation Center.

Last reported at 2017-Oct-09 14:23 UTC. Time now 2017-Oct-19 00:21 UTC.
Position N 39°10' W 073°08'.
Warning: this ship's position is 9 days out of date.

Length 28 m.

Type: Fishing. MMSI: 367723510.

Date/timePositionNaut miles runAvg speedWind from/ knotsBaromVisibWave heightAir tempDewpointWater temp
2017-Oct-09 14:23N 39°10' W 073°08'3 1.3
2017-Oct-09 11:55N 39°07' W 073°10'2 3.3
2017-Oct-09 11:12N 39°09' W 073°09'1 4.2
2017-Oct-09 11:00N 39°10' W 073°09'0 0.9
2017-Oct-09 10:26N 39°11' W 073°09'0 1.0
2017-Oct-09 10:00N 39°10' W 073°09'1 1.2
2017-Oct-09 09:30N 39°10' W 073°10'0 0.2
2017-Oct-09 08:01N 39°10' W 073°10'0 0.2
2017-Oct-09 07:59N 39°10' W 073°10'0 0.1
2017-Oct-09 07:30N 39°10' W 073°10'0 0.1
2017-Oct-09 06:57N 39°10' W 073°10'0 0.1
2017-Oct-09 06:26N 39°10' W 073°10'0 0.0
2017-Oct-09 05:57N 39°10' W 073°10'0 0.1
2017-Oct-09 05:28N 39°10' W 073°10'0 0.1
2017-Oct-09 04:44N 39°10' W 073°10'0 0.0
2017-Oct-09 04:19N 39°10' W 073°10'3 0.1
2017-Oct-08 10:13N 39°07' W 073°09'1 4.8
2017-Oct-08 09:59N 39°08' W 073°11'2 3.8
2017-Oct-08 09:29N 39°08' W 073°13'2 4.7
2017-Oct-08 09:00N 39°08' W 073°10'1 0.2
2017-Oct-08 02:48N 39°08' W 073°08'1 4.1
2017-Oct-08 02:30N 39°08' W 073°10'2 5.0
2017-Oct-08 02:00N 39°08' W 073°13'2 3.4
2017-Oct-08 01:30N 39°08' W 073°11'1 1.5
2017-Oct-08 00:59N 39°08' W 073°10'2 4.7
2017-Oct-08 00:30N 39°08' W 073°13'2 3.6
2017-Oct-07 23:56N 39°08' W 073°10'0 0.3
2017-Oct-07 23:25N 39°08' W 073°10'2 0.8
2017-Oct-07 21:35N 39°07' W 073°09'1 3.3
2017-Oct-07 21:25N 39°08' W 073°08'1 0.2
2017-Oct-07 14:25N 39°06' W 073°08'0 0.7
2017-Oct-07 14:00N 39°07' W 073°09'1 1.3
2017-Oct-07 13:30N 39°07' W 073°08'0 0.4
2017-Oct-07 12:58N 39°07' W 073°08'2 4.6
2017-Oct-07 12:28N 39°10' W 073°08'3 3.9
2017-Oct-07 11:47N 39°07' W 073°09'1 3.0
2017-Oct-07 11:26N 39°08' W 073°08'1 1.2
2017-Oct-07 10:24N 39°07' W 073°08'0 0.7
2017-Oct-07 10:00N 39°07' W 073°09'0 0.8
2017-Oct-07 09:30N 39°07' W 073°09'2 3.6
2017-Oct-07 09:00N 39°08' W 073°11'0 0.2
2017-Oct-07 08:07N 39°08' W 073°11'0 0.1
2017-Oct-07 07:12N 39°08' W 073°11'0 0.1
2017-Oct-07 06:47N 39°08' W 073°11'0 0.0
2017-Oct-07 06:31N 39°08' W 073°11'0 0.0
2017-Oct-07 05:53N 39°08' W 073°11'0 0.1
2017-Oct-07 05:30N 39°08' W 073°11'0 0.0
2017-Oct-07 04:59N 39°08' W 073°11'0 0.0
2017-Oct-07 04:25N 39°08' W 073°11'0 0.4
2017-Oct-07 03:54N 39°08' W 073°11'1 3.5
2017-Oct-07 03:28N 39°07' W 073°09'3 3.9
2017-Oct-07 02:47N 39°10' W 073°08'2 4.3
2017-Oct-07 02:16N 39°07' W 073°08'1 3.3
2017-Oct-07 01:59N 39°08' W 073°10'3 4.9
2017-Oct-07 01:26N 39°08' W 073°13'3 4.0
2017-Oct-07 00:34N 39°07' W 073°09'0 3.9
2017-Oct-07 00:29N 39°08' W 073°09'2 4.9
2017-Oct-06 23:59N 39°08' W 073°12'3 0.4
2017-Oct-06 15:59N 39°07' W 073°09'1 2.5
2017-Oct-06 15:28N 39°08' W 073°10'2 2.9
2017-Oct-06 14:56N 39°08' W 073°12'2 4.7
2017-Oct-06 14:29N 39°08' W 073°09'1 3.0
2017-Oct-06 14:00N 39°08' W 073°07'1 0.9
2017-Oct-06 13:21N 39°08' W 073°08'0 0.9
2017-Oct-06 12:59N 39°08' W 073°08'1 2.0
2017-Oct-06 12:30N 39°09' W 073°08'1 1.1
2017-Oct-06 11:38N 39°08' W 073°09'0 2.7
2017-Oct-06 11:30N 39°08' W 073°09'2 4.7
2017-Oct-06 11:00N 39°08' W 073°12'3 3.3
2017-Oct-06 10:12N 39°08' W 073°09'1 2.4
2017-Oct-06 09:57N 39°08' W 073°09'2 0.4
2017-Oct-06 04:37N 39°07' W 073°11'0 0.1
2017-Oct-06 04:29N 39°07' W 073°11'0 0.0
2017-Oct-06 03:47N 39°07' W 073°11'0 1.4
2017-Oct-06 03:27N 39°07' W 073°11'1 0.6
2017-Oct-06 01:51N 39°07' W 073°09'1 3.7
2017-Oct-06 01:29N 39°08' W 073°09'1 1.4
2017-Oct-06 00:33N 39°07' W 073°09'0 1.8
2017-Oct-06 00:24N 39°07' W 073°09'2 0.3
2017-Oct-05 15:20N 39°07' W 073°12'2 4.6
2017-Oct-05 14:57N 39°07' W 073°10'1 2.7
2017-Oct-05 14:30N 39°07' W 073°08'1 1.0
2017-Oct-05 14:01N 39°07' W 073°09'2 3.7
2017-Oct-05 13:31N 39°09' W 073°08'2 2.6
2017-Oct-05 12:46N 39°07' W 073°09'1 3.2
2017-Oct-05 12:30N 39°08' W 073°09'0 0.1
2017-Oct-05 11:03N 39°08' W 073°09'1 4.6
2017-Oct-05 10:54N 39°09' W 073°09'1 3.5
2017-Oct-05 10:30N 39°10' W 073°10'4 4.1
2017-Oct-05 09:37N 39°07' W 073°13'0 4.1
2017-Oct-05 09:30N 39°07' W 073°12'2 4.7
2017-Oct-05 09:01N 39°09' W 073°10'0 0.1
2017-Oct-05 06:06N 39°09' W 073°10'0 0.1
2017-Oct-05 05:48N 39°09' W 073°10'0 0.1
2017-Oct-05 05:30N 39°09' W 073°10'0 0.1
2017-Oct-05 05:01N 39°09' W 073°10'0 0.2
2017-Oct-05 04:31N 39°09' W 073°10'3 4.3
2017-Oct-05 03:52N 39°07' W 073°13'2 4.2
2017-Oct-05 03:30N 39°07' W 073°11'1 3.0
2017-Oct-05 03:01N 39°07' W 073°09'3 4.8
2017-Oct-05 02:29N 39°09' W 073°09'2 2.5
2017-Oct-05 01:40N 39°07' W 073°09'1 4.7
2017-Oct-05 01:30N 39°08' W 073°09'0 0.3
2017-Oct-05 00:54N 39°08' W 073°09'2 4.7
2017-Oct-05 00:30N 39°07' W 073°10'2 3.9
2017-Oct-05 00:00N 39°07' W 073°12'2 2.9
2017-Oct-04 23:29N 39°08' W 073°12'2 0.4
2017-Oct-04 19:35N 39°10' W 073°11'0 0.5
2017-Oct-04 19:23N 39°10' W 073°11'0 0.4
2017-Oct-04 18:26N 39°10' W 073°11'1 0.1
2017-Oct-04 14:13N 39°09' W 073°10'2 3.1
2017-Oct-04 13:25N 39°09' W 073°13'2 4.8
2017-Oct-04 12:55N 39°09' W 073°11'3 1.8
2017-Oct-04 11:03N 39°07' W 073°14'0 4.7
2017-Oct-04 11:00N 39°07' W 073°13'3 3.3
2017-Oct-04 10:13N 39°05' W 073°16'1 3.8
2017-Oct-04 09:59N 39°06' W 073°15'3 0.4
2017-Oct-04 02:27N 39°03' W 073°18'2 2.5
2017-Oct-04 01:42N 39°03' W 073°15'0 1.9
2017-Oct-04 01:30N 39°04' W 073°15'4 0.1
2017-Oct-02 13:41N 39°06' W 073°10'0 0.0
2017-Oct-02 12:47N 39°06' W 073°10'1 0.1
2017-Oct-02 06:43N 39°07' W 073°11'  
Track history (hours):
 
Tides and Currents Weather Stations Pressure Air Temp Water Temp Dewpoint Dewpoint Depression Visibility Wind Speed Wind Dir Waves Ship Positions

Blue Eastern

Owner: BHF Blue Eastern LLC, Naples, FL. More information available from US FCC via Universal Licensing System and Coast Guard Vessel Documentation Center.

Last reported at 2017-Oct-09 14:23 UTC. Time now 2017-Oct-19 00:21 UTC.
Position N 39°10' W 073°08'.
Warning: this ship's position is 9 days out of date.

Length 28 m.

Type: Fishing. MMSI: 367723510.

Date/timePositionNaut miles runAvg speedWind from/ knotsBaromVisibWave heightAir tempDewpointWater temp
2017-Oct-09 14:23N 39°10' W 073°08'3 1.3
2017-Oct-09 11:55N 39°07' W 073°10'2 3.3
2017-Oct-09 11:12N 39°09' W 073°09'1 4.2
2017-Oct-09 11:00N 39°10' W 073°09'0 0.9
2017-Oct-09 10:26N 39°11' W 073°09'0 1.0
2017-Oct-09 10:00N 39°10' W 073°09'1 1.2
2017-Oct-09 09:30N 39°10' W 073°10'0 0.2
2017-Oct-09 08:01N 39°10' W 073°10'0 0.2
2017-Oct-09 07:59N 39°10' W 073°10'0 0.1
2017-Oct-09 07:30N 39°10' W 073°10'0 0.1
2017-Oct-09 06:57N 39°10' W 073°10'0 0.1
2017-Oct-09 06:26N 39°10' W 073°10'0 0.0
2017-Oct-09 05:57N 39°10' W 073°10'0 0.1
2017-Oct-09 05:28N 39°10' W 073°10'0 0.1
2017-Oct-09 04:44N 39°10' W 073°10'0 0.0
2017-Oct-09 04:19N 39°10' W 073°10'3 0.1
2017-Oct-08 10:13N 39°07' W 073°09'1 4.8
2017-Oct-08 09:59N 39°08' W 073°11'2 3.8
2017-Oct-08 09:29N 39°08' W 073°13'2 4.7
2017-Oct-08 09:00N 39°08' W 073°10'1 0.2
2017-Oct-08 02:48N 39°08' W 073°08'1 4.1
2017-Oct-08 02:30N 39°08' W 073°10'2 5.0
2017-Oct-08 02:00N 39°08' W 073°13'2 3.4
2017-Oct-08 01:30N 39°08' W 073°11'1 1.5
2017-Oct-08 00:59N 39°08' W 073°10'2 4.7
2017-Oct-08 00:30N 39°08' W 073°13'2 3.6
2017-Oct-07 23:56N 39°08' W 073°10'0 0.3
2017-Oct-07 23:25N 39°08' W 073°10'2 0.8
2017-Oct-07 21:35N 39°07' W 073°09'1 3.3
2017-Oct-07 21:25N 39°08' W 073°08'1 0.2
2017-Oct-07 14:25N 39°06' W 073°08'0 0.7
2017-Oct-07 14:00N 39°07' W 073°09'1 1.3
2017-Oct-07 13:30N 39°07' W 073°08'0 0.4
2017-Oct-07 12:58N 39°07' W 073°08'2 4.6
2017-Oct-07 12:28N 39°10' W 073°08'3 3.9
2017-Oct-07 11:47N 39°07' W 073°09'1 3.0
2017-Oct-07 11:26N 39°08' W 073°08'1 1.2
2017-Oct-07 10:24N 39°07' W 073°08'0 0.7
2017-Oct-07 10:00N 39°07' W 073°09'0 0.8
2017-Oct-07 09:30N 39°07' W 073°09'2 3.6
2017-Oct-07 09:00N 39°08' W 073°11'0 0.2
2017-Oct-07 08:07N 39°08' W 073°11'0 0.1
2017-Oct-07 07:12N 39°08' W 073°11'0 0.1
2017-Oct-07 06:47N 39°08' W 073°11'0 0.0
2017-Oct-07 06:31N 39°08' W 073°11'0 0.0
2017-Oct-07 05:53N 39°08' W 073°11'0 0.1
2017-Oct-07 05:30N 39°08' W 073°11'0 0.0
2017-Oct-07 04:59N 39°08' W 073°11'0 0.0
2017-Oct-07 04:25N 39°08' W 073°11'0 0.4
2017-Oct-07 03:54N 39°08' W 073°11'1 3.5
2017-Oct-07 03:28N 39°07' W 073°09'3 3.9
2017-Oct-07 02:47N 39°10' W 073°08'2 4.3
2017-Oct-07 02:16N 39°07' W 073°08'1 3.3
2017-Oct-07 01:59N 39°08' W 073°10'3 4.9
2017-Oct-07 01:26N 39°08' W 073°13'3 4.0
2017-Oct-07 00:34N 39°07' W 073°09'0 3.9
2017-Oct-07 00:29N 39°08' W 073°09'2 4.9
2017-Oct-06 23:59N 39°08' W 073°12'3 0.4
2017-Oct-06 15:59N 39°07' W 073°09'1 2.5
2017-Oct-06 15:28N 39°08' W 073°10'2 2.9
2017-Oct-06 14:56N 39°08' W 073°12'2 4.7
2017-Oct-06 14:29N 39°08' W 073°09'1 3.0
2017-Oct-06 14:00N 39°08' W 073°07'1 0.9
2017-Oct-06 13:21N 39°08' W 073°08'0 0.9
2017-Oct-06 12:59N 39°08' W 073°08'1 2.0
2017-Oct-06 12:30N 39°09' W 073°08'1 1.1
2017-Oct-06 11:38N 39°08' W 073°09'0 2.7
2017-Oct-06 11:30N 39°08' W 073°09'2 4.7
2017-Oct-06 11:00N 39°08' W 073°12'3 3.3
2017-Oct-06 10:12N 39°08' W 073°09'1 2.4
2017-Oct-06 09:57N 39°08' W 073°09'2 0.4
2017-Oct-06 04:37N 39°07' W 073°11'0 0.1
2017-Oct-06 04:29N 39°07' W 073°11'0 0.0
2017-Oct-06 03:47N 39°07' W 073°11'0 1.4
2017-Oct-06 03:27N 39°07' W 073°11'1 0.6
2017-Oct-06 01:51N 39°07' W 073°09'1 3.7
2017-Oct-06 01:29N 39°08' W 073°09'1 1.4
2017-Oct-06 00:33N 39°07' W 073°09'0 1.8
2017-Oct-06 00:24N 39°07' W 073°09'2 0.3
2017-Oct-05 15:20N 39°07' W 073°12'2 4.6
2017-Oct-05 14:57N 39°07' W 073°10'1 2.7
2017-Oct-05 14:30N 39°07' W 073°08'1 1.0
2017-Oct-05 14:01N 39°07' W 073°09'2 3.7
2017-Oct-05 13:31N 39°09' W 073°08'2 2.6
2017-Oct-05 12:46N 39°07' W 073°09'1 3.2
2017-Oct-05 12:30N 39°08' W 073°09'0 0.1
2017-Oct-05 11:03N 39°08' W 073°09'1 4.6
2017-Oct-05 10:54N 39°09' W 073°09'1 3.5
2017-Oct-05 10:30N 39°10' W 073°10'4 4.1
2017-Oct-05 09:37N 39°07' W 073°13'0 4.1
2017-Oct-05 09:30N 39°07' W 073°12'2 4.7
2017-Oct-05 09:01N 39°09' W 073°10'0 0.1
2017-Oct-05 06:06N 39°09' W 073°10'0 0.1
2017-Oct-05 05:48N 39°09' W 073°10'0 0.1
2017-Oct-05 05:30N 39°09' W 073°10'0 0.1
2017-Oct-05 05:01N 39°09' W 073°10'0 0.2
2017-Oct-05 04:31N 39°09' W 073°10'3 4.3
2017-Oct-05 03:52N 39°07' W 073°13'2 4.2
2017-Oct-05 03:30N 39°07' W 073°11'1 3.0
2017-Oct-05 03:01N 39°07' W 073°09'3 4.8
2017-Oct-05 02:29N 39°09' W 073°09'2 2.5
2017-Oct-05 01:40N 39°07' W 073°09'1 4.7
2017-Oct-05 01:30N 39°08' W 073°09'0 0.3
2017-Oct-05 00:54N 39°08' W 073°09'2 4.7
2017-Oct-05 00:30N 39°07' W 073°10'2 3.9
2017-Oct-05 00:00N 39°07' W 073°12'2 2.9
2017-Oct-04 23:29N 39°08' W 073°12'2 0.4
2017-Oct-04 19:35N 39°10' W 073°11'0 0.5
2017-Oct-04 19:23N 39°10' W 073°11'0 0.4
2017-Oct-04 18:26N 39°10' W 073°11'1 0.1
2017-Oct-04 14:13N 39°09' W 073°10'2 3.1
2017-Oct-04 13:25N 39°09' W 073°13'2 4.8
2017-Oct-04 12:55N 39°09' W 073°11'3 1.8
2017-Oct-04 11:03N 39°07' W 073°14'0 4.7
2017-Oct-04 11:00N 39°07' W 073°13'3 3.3
2017-Oct-04 10:13N 39°05' W 073°16'1 3.8
2017-Oct-04 09:59N 39°06' W 073°15'3 0.4
2017-Oct-04 02:27N 39°03' W 073°18'2 2.5
2017-Oct-04 01:42N 39°03' W 073°15'0 1.9
2017-Oct-04 01:30N 39°04' W 073°15'4 0.1
2017-Oct-02 13:41N 39°06' W 073°10'0 0.0
2017-Oct-02 12:47N 39°06' W 073°10'1 0.1
2017-Oct-02 06:43N 39°07' W 073°11'  

Dump ship's entire track history